• Join FlightAware (Why Join?)
  • Login
  • US Flag 
11:58AM EST


 

Airport Tracker/Info


-or-


 

Live Flight TrackerFlight Track Log ✈ N244A ✈ 06-Nov-2013 ✈ KRST - KHPN

Flight Track Log - Related Links

Times and Time Zones

All times are in EST time to prevent confusion due to time zone crossing. See the N244A flight status page for this flight to view local times or setup timezone preferences in your user account.

Time Position Orientation Groundspeed Altitude Reporting Facility
EST Latitude Longitude Course Direction KTS MPH feet Rate Location/Type
06:03PM 43.9244 -92.5200 314° West 159 183 2,300  Level Minneapolis Center
06:04PM 43.9706 -92.5864 314° West 249 287 5,900 3,600 Climbing Minneapolis Center
06:05PM 44.0197 -92.5306 39° Northeast 269 310 9,800 3,629 Climbing Minneapolis Center
06:06PM 44.0333 -92.4147 81° East 306 352 13,400 3,194 Climbing Minneapolis Center
06:07PM 44.0225 -92.2797 96° East 341 392 16,400 3,000 Climbing Minneapolis Center
06:08PM 44.0075 -92.1031 97° East 381 438 19,600 2,468 Climbing Minneapolis Center
06:09PM 44.0039 -91.9447 92° East 405 466 21,500 1,839 Climbing Minneapolis Center
06:10PM 43.9897 -91.7764 97° East 434 499 23,400 2,226 Climbing Minneapolis Center
06:11PM 43.9775 -91.5839 95° East 449 517 26,100 2,081 Climbing Minneapolis Center
06:12PM 43.9692 -91.4119 94° East 450 518 27,700 1,500 Climbing Minneapolis Center
06:13PM 43.9556 -91.2344 96° East 458 527 29,200 1,403 Climbing Minneapolis Center
06:14PM 43.9444 -91.0547 95° East 466 536 30,600 1,016 Climbing Minneapolis Center
06:15PM 43.9214 -90.8767 100° East 471 542 31,300 726 Climbing Minneapolis Center
06:16PM 43.8961 -90.6936 101° East 482 555 32,100 823 Climbing Minneapolis Center
06:17PM 43.8725 -90.4703 98° East 490 564 33,000 758 Climbing Minneapolis Center
06:18PM 43.8692 -90.3906 93° East 497 572 33,300 758 Climbing Chicago Center
06:19PM 43.8567 -90.1642 94° East 496 571 34,200 823 Climbing Chicago Center
06:20PM 43.8369 -89.9756 98° East 496 571 35,000 774 Climbing Chicago Center
06:21PM 43.8153 -89.7919 99° East 492 566 35,800 823 Climbing Chicago Center
06:22PM 43.7892 -89.6122 101° East 485 558 36,700 581 Climbing Chicago Center
06:23PM 43.7647 -89.4353 101° East 476 548 37,000 145 Climbing Chicago Center
06:24PM 43.7381 -89.2153 99° East 483 556 37,000  Level Chicago Center
06:25PM 43.7183 -89.0214 98° East 501 577 37,000  Level Chicago Center
06:26PM 43.7019 -88.8244 96° East 512 589 37,000  Level Chicago Center
06:27PM 43.6822 -88.6217 98° East 522 601 37,000  Level Chicago Center
06:28PM 43.6589 -88.4167 99° East 529 609 37,000  Level Chicago Center
06:29PM 43.6319 -88.2114 100° East 534 615 37,000  Level Chicago Center
06:31PM 43.5925 -87.8794 99° East 543 625 37,000  Level Minneapolis Center
06:31PM 43.5839 -87.7969 98° East 544 626 37,000  Level Chicago Center
06:32PM 43.5567 -87.5456 98° East 550 633 37,000  Level Chicago Center
06:33PM 43.5339 -87.3578 99° East 554 638 37,000  Level Chicago Center
06:34PM 43.5072 -87.1489 100° East 553 636 37,000  Level Chicago Center
06:35PM 43.4786 -86.9442 101° East 548 631 37,000  Level Chicago Center
06:36PM 43.4450 -86.6975 101° East 546 628 37,000  Level Chicago Center
06:38PM 43.4147 -86.4917 101° East 547 629 37,000  Level Chicago Center
06:39PM 43.3889 -86.2836 100° East 550 633 37,000  Level Chicago Center
06:40PM 43.3642 -86.0703 99° East 558 642 37,000  Level Chicago Center
06:41PM 43.3375 -85.8558 100° East 562 647 37,000  Level Chicago Center
06:42PM 43.3111 -85.6439 100° East 558 642 37,000  Level Chicago Center
06:43PM 43.2803 -85.4361 101° East 554 638 37,000  Level Chicago Center
06:44PM 43.2475 -85.2294 102° East 552 635 37,000  Level Chicago Center
06:45PM 43.2094 -84.9803 102° East 556 640 37,000  Level Chicago Center
06:46PM 43.1811 -84.7711 100° East 559 643 37,000  Level Chicago Center
06:47PM 43.1528 -84.5608 100° East 561 646 37,000  Level Chicago Center
06:48PM 43.1219 -84.3481 101° East 563 648 37,000  Level Cleveland Center
06:49PM 43.0947 -84.1494 101° East 568 654 37,000  Level Cleveland Center
06:50PM 43.0633 -83.9358 101° East 572 658 37,000  Level Cleveland Center
06:51PM 43.0194 -83.6844 103° East 567 652 37,000  Level Cleveland Center
06:52PM 42.9808 -83.4750 104° East 567 652 37,000  Level Cleveland Center
06:53PM 42.9425 -83.2656 104° East 567 652 37,000  Level Cleveland Center
06:54PM 42.9075 -83.0569 103° East 563 648 37,000  Level Cleveland Center
06:56PM 42.8386 -82.6383 103° East 564 649 37,000  Level Cleveland Center
06:57PM 42.8047 -82.4303 102° East 563 648 37,000  Level Cleveland Center
06:58PM 42.7622 -82.1817 103° East 562 647 37,000  Level Cleveland Center
06:59PM 42.7253 -81.9739 104° East 563 648 37,000  Level Cleveland Center
07:00PM 42.6881 -81.7708 104° East 565 650 37,000  Level Cleveland Center
07:01PM 42.6625 -81.5544 99° East 577 664 37,000  Level Cleveland Center
07:02PM 42.6631 -81.3264 90° East 594 684 37,000  Level Cleveland Center
07:03PM 42.6697 -81.0986 88° East 597 687 37,000  Level Cleveland Center
07:04PM 42.6667 -80.8336 91° East 597 687 37,000  Level Cleveland Center
07:05PM 42.6608 -80.6100 92° East 587 676 37,000  Level Cleveland Center
07:06PM 42.6500 -80.3856 94° East 588 677 37,000  Level Cleveland Center
07:07PM 42.6400 -80.1606 93° East 591 680 37,000  Level Cleveland Center
07:09PM 42.6342 -79.9192 92° East 594 684 37,000  Level Cleveland Center
07:10PM 42.6311 -79.6961 91° East 596 686 37,000  Level Cleveland Center
07:11PM 42.6283 -79.4731 91° East 593 682 37,000  Level Cleveland Center
07:12PM 42.6219 -79.2500 92° East 593 682 37,000  Level Cleveland Center
07:13PM 42.6150 -79.0281 92° East 592 681 37,000  Level Cleveland Center
07:14PM 42.6031 -78.7622 93° East 589 678 37,000  Level Cleveland Center
07:15PM 42.5931 -78.5403 93° East 591 680 37,000  Level Cleveland Center
07:16PM 42.5828 -78.3231 94° East 580 667 37,000  Level Cleveland Center
07:17PM 42.5703 -78.1022 94° East 588 677 37,000  Level Cleveland Center
07:18PM 42.5611 -77.8831 93° East 589 678 37,000 -48 Level Cleveland Center
07:19PM 42.5561 -77.6511 92° East 594 684 36,900 -145 Descending Cleveland Center
07:20PM 42.5486 -77.4078 92° East 593 682 36,700 -774 Descending Cleveland Center
07:21PM 42.5364 -77.1878 94° East 592 681 35,300 -1,306 Descending Cleveland Center
07:22PM 42.5219 -76.9664 95° East 594 684 34,000 -1,070 Descending Cleveland Center
07:23PM 42.5089 -76.7008 94° East 595 685 33,000 -472 Descending Boston Center
07:24PM 42.4956 -76.4789 95° East 593 682 33,000 -198 Level Boston Center
07:25PM 42.4553 -76.2658 104° East 586 674 32,600 -823 Descending Boston Center
07:26PM 42.4058 -76.0372 106° East 581 669 31,300 -1,161 Descending Boston Center
07:27PM 42.3617 -75.8322 106° East 574 661 30,200 -2,164 Descending Boston Center
07:28PM 42.3153 -75.6278 107° East 574 661 26,900 -3,273 Descending Boston Center
07:29PM 42.2617 -75.4139 109° East 564 649 23,600 -3,171 Descending Boston Center
07:30PM 42.2253 -75.2267 105° East 524 603 20,400 -2,613 Descending Boston Center
07:31PM 42.1858 -75.0625 108° East 508 585 18,200 -1,190 Descending Boston Center
07:32PM 42.1133 -74.8661 116° Southeast 492 566 18,000 -145 Descending Boston Center
07:33PM 42.0575 -74.7019 115° Southeast 487 560 17,900 -581 Descending Boston Center
07:34PM 42.0044 -74.5428 114° Southeast 476 548 16,800 -1,636 Descending Boston Center
07:35PM 41.9392 -74.3792 118° Southeast 464 534 14,600 -2,016 Descending Boston Center
07:36PM 41.8750 -74.2322 120° Southeast 457 526 12,700 -1,839 Descending Boston Center
07:37PM 41.7914 -74.1247 136° Southeast 411 473 10,800 -1,317 Descending Boston Center
07:38PM 41.6994 -74.0678 155° Southeast 368 423 10,000 -793 Descending Boston Center
07:39PM 41.6211 -74.0242 157° South 280 322 9,200 -1,500 Descending Boston Center
07:40PM 41.5503 -73.9850 158° South 275 316 6,900 -1,548 Descending Boston Center
07:41PM 41.4828 -73.9308 149° Southeast 278 320 6,000 -941 Descending Boston Center
07:43PM 41.3833 -73.8667 154° Southeast 261 300 4,500 -898 Descending New York TRACON
07:44PM 41.3167 -73.8667 180° South 237 273 3,800 -783 Descending New York TRACON
07:45PM 41.2500 -73.8500 169° South 236 272 3,000 -381 Descending New York TRACON
07:46PM 41.2000 -73.8000 143° Southeast 205 236 3,000 -286 Level New York TRACON
07:47PM 41.1667 -73.7833 159° South 119 137 2,400 -600 Descending New York TRACON
07:48PM 41.1333 -73.7667 159° South 107 123 1,800 -550 Descending New York TRACON
07:49PM 41.1167 -73.7333 124° Southeast 105 121 1,300 -550 Descending New York TRACON
07:50PM 41.0833 -73.7167 159° South 108 124 700 -600 Descending New York TRACON
07:52PM 41.0667 -73.7000 246° West  Level FlightAware Approximate
07:59PM 41.0669 -73.7076 246° West  Level Estimated